首页
METAR-TAF:

METAR-TAF

机场 :

赫维什-巴拉顿国际机场

黑維茲, 匈牙利

纬度: 46-41-11N, 经度: 017-09-33E, 海拔: 124米

当前天气观测

该预报发布于43分钟前的07:45 UTC
风速10节,风向
温度 0°C
湿度 100%
气压 995 hPa
能見度: 2400
多云层高于600英尺
轻雾

METAR: LHSM 130745Z AUTO 18010KT 2400 BR BKN006 00/M00 Q0995 BECMG 5000 BR BKN010

时间: 09:28 (08:28 UTC)

预报

该预报发布于2小时和28分钟前的06:00 UTC
预报有效从13日的 06点(UTC)到 13日的 15点(UTC)
风速10节,风向
能見度: 5000
阴天层高于400英尺
轻雾
成为
从 13日的 06点(UTC)到 13日的 09点(UTC)
能見度: 8000
多云层高于1000英尺
成为
从 13日的 09点(UTC)到 13日的 12点(UTC)
能见度10公里或以上
散云层高于1500英尺

TAF: LHSM 130600Z 1306/1315 18010KT 5000 BR OVC004 BECMG 1306/1309 8000 NSW BKN010 BECMG 1309/1312 9999 SCT015

超过4000个机场的气象观测和天气预报(METAR&TAF报告)。

可查询的气象台以黄色和红色小点在地图上表示。

将鼠标移到小点上方,可查看气象台名称。

然后点击查看天气观测和预报。

如需切换地图:点击带黑十字的绿色按钮放大地图;点击带横线的绿色按钮缩小地图;或者点击绿色箭头查看邻近地区的地图。


METAR-TAF: